Airfield :
LOGIN :

Register | Disclaimer

   EN    FR    IT 

 










Legend :    VFR   Marginal VFR   IFR   Intensive IFR   Very Intensive IFR
Visi :
Ceiling :
>= 8 km
>= 3000ft
5 to 8 km
1000 to 3000 ft
1500m to 5 km
500 to 1000 ft
800 to 1500m
200 to 500 ft
< 800m
< 200 ft
Symbols :   Thunderstorms  Fog  Heavy snow  Heavy precipitations  Wind > 20 kt
SIGMETs :     Misc.  Thunderstorms  Icing  Turbulence  Mountain Waves  Volcanic Ashes






- Airport Elevation : 468 ft
- IATA code : GRO


LEGE - Girona Costa Brava

CURRENT METAR :
  • 201930Z 00000KT 9999 FEW017 BKN037 16/14 Q1016

EXPIRED METARs :
  • 201900Z 06003KT 9999 FEW017 BKN037 15/14 Q1016
  • 201830Z VRB02KT 9999 FEW018 BKN037 17/14 Q1016
  • 201800Z 00000KT 9999 FEW017 SCT027 BKN038 17/14 Q1016
  • 201730Z 21002KT 9999 FEW020 SCT035 17/14 Q1016
  • 201700Z 18003KT 150V210 9999 FEW020 SCT040 17/14 Q1016

TAF TAF LEGE
Valid from the 20 at 18:00 until the 21 at 18:00 UTC


201700Z 2018/2118 VRB04KT 9999 SCT020 TX25/2113Z TN13/2106Z
TEMPO 2018/2108 3000 BR BKN014
PROB40
TEMPO 2102/2108 0500 BCFG VV002



MET'MAP, your aeronautical weather chart ! - Copyright ORBIFLY December 2007 - Disclaimer

ORBIFLY MET'MAP TEAM :

Programming & Development : Alexandra Zaïnal
Concept & original design : Baudouin d'Aumeries
Assistance for programming : Marc-Olivier Méhu
Technical & hardware support : Manuel Goepfert

Contact : metmap@orbifly.com




SOURCES & CREDITS :

   NOAA